Time;durP1;ratioP1;P1;durP2;ratioP2;P2;SDS_P1;SDS_P2;PMS_P1;PMS_P2;Temp;Humidity;BMP_temperature;BMP_pressure;BME280_temperature;BME280_humidity;BME280_pressure;Samples;Min_cycle;Max_cycle;Signal;HPM_P1;HPM_P2
2022/08/18 00:02:07;;;;;;;3.17;2.05;;;25.20;64.10;;;;;;4521005;31;20084;-70
2022/08/18 00:04:37;;;;;;;3.03;2.10;;;25.20;64.10;;;;;;4539357;31;20084;-70
2022/08/18 00:07:06;;;;;;;5.13;2.28;;;25.10;64.00;;;;;;4520971;31;20102;-70
2022/08/18 00:09:34;;;;;;;4.38;2.20;;;25.10;64.00;;;;;;4539462;31;20496;-70
2022/08/18 00:12:05;;;;;;;3.75;2.05;;;25.10;64.00;;;;;;4539379;31;20210;-70
2022/08/18 00:14:32;;;;;;;5.00;2.13;;;25.20;64.10;;;;;;4533042;31;20119;-73
2022/08/18 00:16:57;;;;;;;3.70;2.00;;;25.10;64.00;;;;;;4539424;31;20091;-71
2022/08/18 00:19:24;;;;;;;2.85;2.10;;;25.10;64.10;;;;;;4536420;31;20145;-71
2022/08/18 00:21:50;;;;;;;3.63;2.15;;;25.10;64.00;;;;;;4534915;31;20123;-70
2022/08/18 00:24:16;;;;;;;5.93;2.13;;;25.10;64.00;;;;;;4534504;31;20072;-70
2022/08/18 00:26:42;;;;;;;4.25;2.30;;;25.10;64.00;;;;;;4523391;31;20079;-70
2022/08/18 00:29:08;;;;;;;4.82;2.20;;;25.10;64.00;;;;;;4523290;31;20140;-70
2022/08/18 00:31:34;;;;;;;2.88;1.90;;;25.10;64.00;;;;;;4530455;31;20056;-70
2022/08/18 00:34:00;;;;;;;5.07;2.30;;;25.10;64.00;;;;;;4527275;31;20124;-70
2022/08/18 00:36:26;;;;;;;4.25;2.42;;;25.10;64.00;;;;;;4523419;31;20099;-70
2022/08/18 00:38:53;;;;;;;4.53;2.42;;;25.10;64.00;;;;;;4523474;31;20127;-70
2022/08/18 00:41:20;;;;;;;4.00;2.10;;;25.10;64.00;;;;;;4523112;31;20157;-70
2022/08/18 00:43:50;;;;;;;4.55;2.25;;;25.10;64.00;;;;;;4532148;31;20180;-70
2022/08/18 00:46:23;;;;;;;4.18;1.92;;;25.00;64.00;;;;;;4524513;31;20901;-70
2022/08/18 00:48:49;;;;;;;4.63;2.63;;;25.00;63.90;;;;;;4531520;31;20091;-70
2022/08/18 00:51:43;;;;;;;2.90;1.90;;;25.10;64.00;;;;;;4525986;31;20078;-70
2022/08/18 00:54:29;;;;;;;3.70;1.95;;;25.10;63.90;;;;;;4521401;31;20100;-70
2022/08/18 00:56:59;;;;;;;2.88;1.70;;;25.10;64.00;;;;;;4523468;31;20433;-70
2022/08/18 00:59:36;;;;;;;2.95;1.80;;;25.10;64.00;;;;;;4534216;31;20104;-70
2022/08/18 01:02:05;;;;;;;3.40;1.90;;;25.00;64.00;;;;;;4523421;31;20064;-70
2022/08/18 01:04:48;;;;;;;2.58;1.70;;;25.00;64.00;;;;;;4523100;31;20104;-70
2022/08/18 01:07:28;;;;;;;2.65;2.03;;;25.00;63.90;;;;;;4523336;31;20079;-70
2022/08/18 01:09:58;;;;;;;2.40;1.70;;;25.00;63.90;;;;;;4523160;31;20072;-70
2022/08/18 01:12:25;;;;;;;3.38;1.88;;;25.00;64.00;;;;;;4522979;31;20274;-70
2022/08/18 01:14:53;;;;;;;3.40;1.98;;;25.00;64.00;;;;;;4522885;31;20080;-70
2022/08/18 01:23:16;;;;;;;3.90;2.05;;;25.00;64.00;;;;;;4531792;31;20077;-70
2022/08/18 01:28:30;;;;;;;3.08;1.77;;;25.00;64.00;;;;;;4526127;31;20157;-70
2022/08/18 01:30:58;;;;;;;4.68;2.03;;;25.00;64.00;;;;;;4526169;31;20085;-70
2022/08/18 01:33:51;;;;;;;4.53;1.73;;;25.00;64.10;;;;;;4526053;31;20061;-70
2022/08/18 01:36:20;;;;;;;3.22;2.00;;;25.00;64.90;;;;;;4524338;31;20076;-70
2022/08/18 01:38:51;;;;;;;3.65;1.90;;;25.00;64.00;;;;;;4525808;31;20076;-70
2022/08/18 01:41:20;;;;;;;3.63;1.60;;;25.00;64.00;;;;;;4511776;31;20522;-70
2022/08/18 01:43:47;;;;;;;3.65;1.92;;;25.00;64.00;;;;;;4525660;31;20072;-70
2022/08/18 01:46:17;;;;;;;1.88;1.60;;;25.00;64.00;;;;;;4525340;31;20222;-70
2022/08/18 01:48:43;;;;;;;6.57;2.08;;;25.00;64.00;;;;;;4525902;31;20532;-70
2022/08/18 01:51:11;;;;;;;2.55;1.50;;;24.90;63.90;;;;;;4525609;31;20076;-70
2022/08/18 01:53:38;;;;;;;3.30;1.92;;;25.00;64.00;;;;;;4525771;31;20162;-70
2022/08/18 01:56:04;;;;;;;3.30;1.88;;;25.00;64.00;;;;;;4525545;31;20132;-70
2022/08/18 01:58:32;;;;;;;3.13;1.50;;;25.00;64.00;;;;;;4525709;31;20224;-70
2022/08/18 02:01:00;;;;;;;4.25;1.77;;;25.00;64.00;;;;;;4525482;31;20428;-70
2022/08/18 02:03:39;;;;;;;2.30;1.58;;;25.00;64.00;;;;;;4525560;31;20180;-70
2022/08/18 02:06:10;;;;;;;2.38;1.75;;;25.00;64.00;;;;;;4525536;31;20142;-70
2022/08/18 02:08:37;;;;;;;3.97;1.90;;;24.90;64.00;;;;;;4511184;31;20076;-70
2022/08/18 02:11:05;;;;;;;2.30;1.70;;;25.00;64.00;;;;;;4525326;31;20091;-70
2022/08/18 02:13:31;;;;;;;1.80;1.52;;;24.90;64.00;;;;;;4525498;31;20099;-70
2022/08/18 02:15:57;;;;;;;3.78;1.70;;;24.90;63.90;;;;;;4525487;31;20072;-70
2022/08/18 02:18:31;;;;;;;3.15;1.70;;;24.90;63.90;;;;;;4524915;31;20127;-70
2022/08/18 02:21:06;;;;;;;2.17;1.58;;;25.00;64.00;;;;;;4525258;31;20524;-70
2022/08/18 02:23:32;;;;;;;2.95;1.60;;;24.90;63.90;;;;;;4536258;31;20076;-70
2022/08/18 02:26:02;;;;;;;2.85;1.77;;;24.90;63.90;;;;;;4525455;31;20088;-70
2022/08/18 02:28:27;;;;;;;2.22;1.63;;;24.90;64.00;;;;;;4525096;31;20072;-70
2022/08/18 02:30:53;;;;;;;2.38;1.55;;;24.90;63.90;;;;;;4524997;31;20056;-70
2022/08/18 02:33:20;;;;;;;2.63;1.88;;;24.90;64.00;;;;;;4525271;31;20200;-70
2022/08/18 02:35:53;;;;;;;3.50;1.50;;;24.90;63.90;;;;;;4524959;31;20084;-70
2022/08/18 02:38:19;;;;;;;2.85;1.70;;;24.90;63.90;;;;;;4524945;31;20064;-70
2022/08/18 02:40:45;;;;;;;1.58;1.40;;;24.90;63.90;;;;;;4524916;31;20087;-70
2022/08/18 02:43:11;;;;;;;2.40;1.63;;;24.90;64.00;;;;;;4524686;31;20517;-70
2022/08/18 02:45:40;;;;;;;2.45;1.65;;;24.90;63.90;;;;;;4524662;31;20147;-70
2022/08/18 02:48:06;;;;;;;2.30;1.60;;;24.90;64.80;;;;;;4524679;31;20081;-70
2022/08/18 02:50:32;;;;;;;2.90;1.58;;;24.90;63.90;;;;;;4524958;31;20083;-70
2022/08/18 02:53:01;;;;;;;2.03;1.40;;;24.90;64.00;;;;;;4524707;31;20068;-70
2022/08/18 02:55:28;;;;;;;3.03;1.50;;;24.90;63.90;;;;;;4524858;31;20183;-70
2022/08/18 02:57:54;;;;;;;2.70;1.60;;;24.90;63.90;;;;;;4524546;31;20161;-70
2022/08/18 03:00:20;;;;;;;2.50;1.38;;;24.90;64.00;;;;;;4524768;31;20112;-70
2022/08/18 03:02:47;;;;;;;2.42;1.50;;;24.90;64.00;;;;;;4524619;31;20598;-70
2022/08/18 03:05:14;;;;;;;2.33;1.58;;;24.90;63.90;;;;;;4524651;31;20092;-70
2022/08/18 03:07:40;;;;;;;2.88;1.58;;;24.90;63.90;;;;;;4524480;31;20104;-70
2022/08/18 03:10:07;;;;;;;2.03;1.52;;;24.90;63.90;;;;;;4524763;31;20521;-70
2022/08/18 03:12:33;;;;;;;1.70;1.35;;;24.90;64.00;;;;;;4524474;31;20087;-70
2022/08/18 03:15:00;;;;;;;2.53;1.77;;;24.90;64.00;;;;;;4524327;31;20120;-70
2022/08/18 03:17:27;;;;;;;2.75;1.38;;;24.80;63.90;;;;;;4524215;31;20218;-70
2022/08/18 03:19:53;;;;;;;3.72;1.80;;;24.90;64.00;;;;;;4510012;31;20218;-70
2022/08/18 03:22:19;;;;;;;2.03;1.83;;;24.90;64.00;;;;;;4528228;31;20052;-70
2022/08/18 03:24:45;;;;;;;2.63;1.58;;;24.80;63.90;;;;;;4517144;31;20080;-70
2022/08/18 03:27:11;;;;;;;4.03;1.52;;;24.80;63.90;;;;;;4524077;31;20083;-70
2022/08/18 03:29:37;;;;;;;2.63;1.60;;;24.90;64.00;;;;;;4524275;31;20084;-70
2022/08/18 03:32:05;;;;;;;2.08;1.63;;;24.80;64.00;;;;;;4524211;31;20083;-70
2022/08/18 03:34:31;;;;;;;1.83;1.30;;;24.80;63.90;;;;;;4524302;31;20552;-70
2022/08/18 03:36:58;;;;;;;2.60;1.40;;;24.80;64.00;;;;;;4535221;31;20088;-70
2022/08/18 03:39:26;;;;;;;3.15;1.40;;;24.80;64.00;;;;;;4524085;31;20076;-70
2022/08/18 03:41:55;;;;;;;3.13;1.50;;;24.80;63.90;;;;;;4524057;31;20497;-70
2022/08/18 03:44:22;;;;;;;2.80;1.50;;;24.80;64.00;;;;;;4523604;31;20203;-70
2022/08/18 03:46:49;;;;;;;2.25;1.55;;;24.80;64.00;;;;;;4523854;31;20076;-70
2022/08/18 03:49:16;;;;;;;2.20;1.42;;;24.80;64.00;;;;;;4523182;31;20068;-70
2022/08/18 03:51:45;;;;;;;2.10;1.65;;;24.80;64.00;;;;;;4523926;31;20076;-70
2022/08/18 03:54:12;;;;;;;2.40;1.60;;;24.80;64.00;;;;;;4525353;31;20616;-70
2022/08/18 03:56:40;;;;;;;3.03;1.60;;;24.80;64.00;;;;;;4538840;31;20103;-70
2022/08/18 03:59:16;;;;;;;3.20;1.70;;;24.80;64.00;;;;;;4536829;31;20505;-70
2022/08/18 04:01:45;;;;;;;1.83;1.40;;;24.80;64.00;;;;;;4537437;31;20064;-70
2022/08/18 04:04:16;;;;;;;2.28;1.40;;;24.80;63.90;;;;;;4534868;31;20161;-70
2022/08/18 04:06:55;;;;;;;3.03;1.50;;;24.80;64.00;;;;;;4537452;31;20234;-70
2022/08/18 04:09:24;;;;;;;2.40;1.42;;;24.80;64.00;;;;;;4539173;31;20084;-70
2022/08/18 04:11:51;;;;;;;3.13;1.45;;;24.80;64.00;;;;;;4539157;31;20678;-70
2022/08/18 04:14:20;;;;;;;2.17;1.20;;;24.70;64.00;;;;;;4537898;31;20524;-70
2022/08/18 04:16:47;;;;;;;2.70;1.52;;;24.80;64.00;;;;;;4538321;31;20072;-70
2022/08/18 04:19:16;;;;;;;2.25;1.40;;;24.70;64.00;;;;;;4538847;31;20135;-70
2022/08/18 04:21:43;;;;;;;3.30;1.42;;;24.70;63.90;;;;;;4536805;31;20064;-70
2022/08/18 04:24:11;;;;;;;2.63;1.35;;;24.80;64.00;;;;;;4534088;31;20483;-70
2022/08/18 04:26:41;;;;;;;1.80;1.20;;;24.70;63.90;;;;;;4523441;31;20060;-70
2022/08/18 04:29:12;;;;;;;1.60;1.30;;;24.80;64.00;;;;;;4525247;31;20175;-70
2022/08/18 04:31:38;;;;;;;1.48;1.20;;;24.80;64.00;;;;;;4525074;31;20198;-70
2022/08/18 04:34:04;;;;;;;2.22;1.33;;;24.70;63.90;;;;;;4537281;31;20513;-70
2022/08/18 04:36:33;;;;;;;2.25;1.48;;;24.70;63.90;;;;;;4539262;31;20131;-70
2022/08/18 04:38:59;;;;;;;2.08;1.40;;;24.70;64.00;;;;;;4539265;31;20268;-70
2022/08/18 04:41:26;;;;;;;2.40;1.40;;;24.70;64.00;;;;;;4539525;31;20539;-70
2022/08/18 04:43:53;;;;;;;2.08;1.27;;;24.70;64.00;;;;;;4538887;31;20473;-70
2022/08/18 04:46:19;;;;;;;2.50;1.23;;;24.80;64.00;;;;;;4539210;31;20123;-70
2022/08/18 04:48:45;;;;;;;2.22;1.20;;;24.70;63.90;;;;;;4524770;31;20229;-72
2022/08/18 04:51:14;;;;;;;1.80;1.17;;;24.70;63.90;;;;;;4539017;31;20138;-70
2022/08/18 04:53:46;;;;;;;1.15;1.00;;;24.70;63.90;;;;;;4539451;31;20156;-70
2022/08/18 04:56:25;;;;;;;2.13;1.17;;;24.70;63.90;;;;;;4539209;31;20136;-70
2022/08/18 04:58:59;;;;;;;1.75;1.23;;;24.70;63.90;;;;;;4539313;31;20417;-70
2022/08/18 05:01:29;;;;;;;1.73;1.10;;;24.70;64.00;;;;;;4542393;31;20060;-70
2022/08/18 05:03:57;;;;;;;1.60;1.20;;;24.70;64.00;;;;;;4542410;31;20083;-70
2022/08/18 05:06:25;;;;;;;2.55;1.30;;;24.70;63.90;;;;;;4542269;31;20505;-70
2022/08/18 05:08:53;;;;;;;1.80;1.10;;;24.70;64.00;;;;;;4534185;31;20170;-69
2022/08/18 05:11:20;;;;;;;1.55;1.33;;;24.70;64.00;;;;;;4539866;31;20084;-71
2022/08/18 05:13:48;;;;;;;2.63;1.30;;;24.70;64.00;;;;;;4542387;31;20080;-70
2022/08/18 05:16:14;;;;;;;1.83;1.30;;;24.70;64.00;;;;;;4527739;31;20090;-70
2022/08/18 05:18:40;;;;;;;1.40;1.25;;;24.70;64.00;;;;;;4542253;31;20135;-70
2022/08/18 05:21:10;;;;;;;1.65;1.05;;;24.70;63.90;;;;;;4542335;31;20067;-70
2022/08/18 05:23:36;;;;;;;2.45;1.20;;;24.70;64.10;;;;;;4540538;31;20080;-70
2022/08/18 05:26:03;;;;;;;2.35;1.35;;;24.70;64.10;;;;;;4526277;31;20052;-70
2022/08/18 05:28:30;;;;;;;1.83;1.20;;;24.70;64.10;;;;;;4526171;31;20080;-69
2022/08/18 05:30:57;;;;;;;2.40;1.23;;;24.70;64.10;;;;;;4526450;31;20254;-70
2022/08/18 05:33:24;;;;;;;1.67;1.25;;;24.70;64.00;;;;;;4526060;31;20079;-69
2022/08/18 05:36:00;;;;;;;2.75;1.00;;;24.70;64.00;;;;;;4525951;31;20134;-68
2022/08/18 05:38:51;;;;;;;1.73;1.25;;;24.70;63.90;;;;;;4526045;31;20402;-70
2022/08/18 05:41:27;;;;;;;1.98;1.38;;;24.70;63.90;;;;;;4525965;31;20088;-70
2022/08/18 05:43:53;;;;;;;1.80;1.08;;;24.70;64.10;;;;;;4526023;31;20640;-70
2022/08/18 05:46:33;;;;;;;2.05;1.20;;;24.70;64.00;;;;;;4536376;31;20147;-76
2022/08/18 05:48:59;;;;;;;1.60;1.15;;;24.70;64.90;;;;;;4525856;31;20076;-70
2022/08/18 05:51:48;;;;;;;2.03;1.20;;;24.60;64.00;;;;;;4525935;31;20068;-70
2022/08/18 05:57:07;;;;;;;2.05;1.38;;;24.70;64.10;;;;;;4525910;31;20422;-70
2022/08/18 05:59:36;;;;;;;2.63;1.30;;;24.60;64.00;;;;;;4525501;31;20528;-70
2022/08/18 06:02:21;;;;;;;1.30;1.20;;;24.70;64.10;;;;;;4525848;31;20138;-70
2022/08/18 06:04:58;;;;;;;1.70;1.10;;;24.70;64.00;;;;;;4525479;31;20095;-70
2022/08/18 06:07:41;;;;;;;2.53;1.10;;;24.60;64.00;;;;;;4525617;31;20226;-70
2022/08/18 06:10:09;;;;;;;1.92;1.10;;;24.60;64.00;;;;;;4525418;31;20087;-69
2022/08/18 06:12:37;;;;;;;3.45;1.23;;;24.60;64.00;;;;;;4524885;31;20112;-69
2022/08/18 06:15:26;;;;;;;2.22;1.35;;;24.60;64.20;;;;;;4525354;31;20528;-69
2022/08/18 06:18:26;;;;;;;1.98;1.42;;;24.60;64.40;;;;;;4525170;31;20080;-69
2022/08/18 06:21:21;;;;;;;4.88;1.50;;;24.60;64.60;;;;;;4529283;31;20658;-69
2022/08/18 06:24:17;;;;;;;3.42;1.50;;;24.60;64.70;;;;;;4538930;31;20099;-69
2022/08/18 06:27:30;;;;;;;4.90;1.88;;;24.60;65.00;;;;;;4525221;31;20064;-69
2022/08/18 06:30:31;;;;;;;4.45;1.42;;;24.60;65.10;;;;;;4518073;31;20190;-69
2022/08/18 06:33:22;;;;;;;8.07;1.67;;;24.50;65.10;;;;;;4509627;31;20064;-69
2022/08/18 06:35:50;;;;;;;6.03;1.48;;;24.60;65.30;;;;;;4525000;31;20076;-69
2022/08/18 06:41:35;;;;;;;5.47;1.77;;;24.50;65.40;;;;;;4525096;31;20120;-69
2022/08/18 06:44:09;;;;;;;5.05;1.95;;;24.50;65.50;;;;;;4524738;31;20150;-69
2022/08/18 06:46:35;;;;;;;;;;;24.50;65.50;;;;;;4525697;31;20226;-69
2022/08/18 06:49:08;;;;;;;6.38;1.80;;;24.50;65.50;;;;;;4524828;31;20360;-69
2022/08/18 06:51:36;;;;;;;5.70;1.73;;;24.50;65.60;;;;;;4524984;31;20165;-69
2022/08/18 06:54:23;;;;;;;5.88;1.80;;;24.50;65.70;;;;;;4524824;31;20163;-76
2022/08/18 06:56:51;;;;;;;6.53;1.92;;;24.50;65.70;;;;;;4532205;31;20095;-69
2022/08/18 06:59:28;;;;;;;5.50;1.50;;;24.40;65.70;;;;;;4528446;31;20092;-69
2022/08/18 07:02:19;;;;;;;6.45;1.42;;;24.50;65.80;;;;;;4538823;31;20162;-69
2022/08/18 07:05:18;;;;;;;8.60;1.80;;;24.50;65.90;;;;;;4527694;31;20533;-69
2022/08/18 07:07:44;;;;;;;8.55;1.90;;;24.50;65.80;;;;;;4525529;31;20210;-72
2022/08/18 07:10:12;;;;;;;3.33;1.50;;;24.40;65.90;;;;;;4524569;31;20545;-69
2022/08/18 07:12:38;;;;;;;6.22;1.95;;;24.40;65.90;;;;;;4524184;31;20102;-68
2022/08/18 07:15:06;;;;;;;6.93;1.65;;;24.40;66.00;;;;;;4527998;31;20519;-69
2022/08/18 07:17:37;;;;;;;6.47;1.73;;;24.40;66.10;;;;;;4525457;31;20383;-68
2022/08/18 07:20:17;;;;;;;5.85;1.70;;;24.40;66.00;;;;;;4526662;31;20072;-68
2022/08/18 07:23:07;;;;;;;2.72;1.35;;;24.40;66.10;;;;;;4531155;31;20076;-68
2022/08/18 07:25:45;;;;;;;4.97;1.65;;;24.50;66.00;;;;;;4530158;31;20087;-68
2022/08/18 07:28:38;;;;;;;5.85;1.40;;;24.40;65.90;;;;;;4529103;31;20123;-72
2022/08/18 07:31:23;;;;;;;2.15;1.08;;;24.40;66.00;;;;;;4533920;31;20173;-69
2022/08/18 07:34:18;;;;;;;3.20;1.45;;;24.40;66.10;;;;;;4524118;31;20076;-69
2022/08/18 07:36:56;;;;;;;4.65;1.27;;;24.50;66.20;;;;;;4523365;31;20083;-69
2022/08/18 07:39:54;;;;;;;3.78;1.00;;;24.40;66.10;;;;;;4534768;31;20076;-69
2022/08/18 07:42:31;;;;;;;3.75;1.50;;;24.50;66.10;;;;;;4525083;31;20079;-69
2022/08/18 07:44:59;;;;;;;3.90;1.17;;;24.50;66.10;;;;;;4531635;31;20508;-66
2022/08/18 07:48:24;;;;;;;5.97;1.50;;;24.40;66.10;;;;;;4524473;31;27263;-70
2022/08/18 07:51:12;;;;;;;3.97;0.98;;;24.40;66.10;;;;;;4489030;31;20081;-70
2022/08/18 07:53:56;;;;;;;6.03;1.10;;;24.40;66.10;;;;;;4489604;31;20084;-70
2022/08/18 07:56:45;;;;;;;2.92;1.00;;;24.40;66.10;;;;;;4525322;31;20068;-69
2022/08/18 07:59:38;;;;;;;4.68;1.40;;;24.40;66.20;;;;;;4538395;31;20214;-70
2022/08/18 08:02:23;;;;;;;5.15;1.17;;;24.40;66.20;;;;;;4539122;31;20068;-69
2022/08/18 08:04:54;;;;;;;3.80;1.10;;;24.50;66.30;;;;;;4532095;31;20507;-69
2022/08/18 08:07:25;;;;;;;5.10;1.48;;;24.50;66.20;;;;;;4539657;31;20214;-69
2022/08/18 08:10:28;;;;;;;2.97;1.10;;;24.50;66.20;;;;;;4539822;31;20112;-69
2022/08/18 08:13:05;;;;;;;3.88;1.05;;;24.60;66.30;;;;;;4538920;31;20086;-69
2022/08/18 08:15:56;;;;;;;3.13;0.73;;;24.60;66.40;;;;;;4539624;31;20136;-69
2022/08/18 08:18:32;;;;;;;3.33;1.05;;;24.70;66.60;;;;;;4531455;31;20186;-69
2022/08/18 08:21:07;;;;;;;4.38;1.10;;;24.70;66.60;;;;;;4524973;31;20160;-69
2022/08/18 08:24:05;;;;;;;2.97;1.00;;;24.70;66.40;;;;;;4539371;31;20103;-69
2022/08/18 08:27:00;;;;;;;3.78;1.10;;;24.70;66.30;;;;;;4536171;31;20119;-69
2022/08/18 08:29:26;;;;;;;3.88;1.05;;;24.80;66.50;;;;;;4539513;31;20132;-69
2022/08/18 08:31:56;;;;;;;4.30;1.30;;;24.80;66.50;;;;;;4539473;31;20131;-68
2022/08/18 08:34:48;;;;;;;3.95;0.93;;;24.80;66.50;;;;;;4519307;31;20080;-69
2022/08/18 08:37:22;;;;;;;2.72;0.80;;;24.80;66.40;;;;;;4538828;31;20091;-69
2022/08/18 08:39:56;;;;;;;3.55;1.20;;;24.80;66.40;;;;;;4538908;31;20091;-69
2022/08/18 08:42:41;;;;;;;3.25;1.02;;;24.80;66.40;;;;;;4524232;31;20094;-69
2022/08/18 08:45:29;;;;;;;2.58;0.90;;;24.80;66.40;;;;;;4538589;31;20398;-69
2022/08/18 08:47:58;;;;;;;2.15;1.30;;;24.80;66.40;;;;;;4536055;31;20076;-69
2022/08/18 08:50:27;;;;;;;2.50;0.85;;;24.80;66.40;;;;;;4538698;31;20170;-69
2022/08/18 08:53:06;;;;;;;3.70;1.10;;;24.80;66.40;;;;;;4538769;31;20210;-70
2022/08/18 08:55:36;;;;;;;2.60;1.10;;;24.80;66.40;;;;;;4537025;31;20128;-68
2022/08/18 08:58:11;;;;;;;3.65;1.08;;;24.80;67.30;;;;;;4524479;31;20235;-68
2022/08/18 09:00:41;;;;;;;2.25;0.93;;;24.80;66.60;;;;;;4539093;31;20072;-69
2022/08/18 09:03:24;;;;;;;2.67;0.95;;;24.80;66.50;;;;;;4524231;31;20532;-68
2022/08/18 09:06:22;;;;;;;2.47;0.90;;;24.80;66.30;;;;;;4538822;31;20615;-68
2022/08/18 09:09:09;;;;;;;4.68;1.20;;;24.80;66.30;;;;;;4526463;31;20578;-69
2022/08/18 09:11:57;;;;;;;3.55;1.30;;;24.70;66.30;;;;;;4537370;31;20176;-68
2022/08/18 09:14:41;;;;;;;4.93;1.00;;;24.70;66.20;;;;;;4524220;31;20164;-67
2022/08/18 09:17:52;;;;;;;2.78;1.10;;;24.70;66.20;;;;;;4535778;31;20095;-67
2022/08/18 09:20:36;;;;;;;3.50;1.00;;;24.70;66.20;;;;;;4538925;31;20076;-67
2022/08/18 09:23:10;;;;;;;2.28;1.10;;;24.70;66.30;;;;;;4539057;31;20127;-66
2022/08/18 09:25:42;;;;;;;3.05;0.82;;;24.70;66.20;;;;;;4538809;31;20072;-67
2022/08/18 09:28:13;;;;;;;2.92;1.38;;;24.70;66.20;;;;;;4539097;31;20138;-67
2022/08/18 09:31:02;;;;;;;3.83;1.20;;;24.70;66.20;;;;;;4536882;31;20391;-67
2022/08/18 09:33:40;;;;;;;4.05;0.85;;;24.70;66.10;;;;;;4538483;31;20151;-69
2022/08/18 09:36:24;;;;;;;2.42;1.10;;;24.70;66.20;;;;;;4537977;31;20068;-68
2022/08/18 09:42:24;;;;;;;5.50;1.65;;;24.80;66.30;;;;;;4538344;31;20485;-68
2022/08/18 09:44:50;;;;;;;4.22;1.40;;;24.80;66.30;;;;;;4537758;31;20056;-68
2022/08/18 09:47:19;;;;;;;5.28;1.33;;;24.90;66.30;;;;;;4539107;31;20175;-68
2022/08/18 09:49:52;;;;;;;5.18;1.38;;;24.90;66.30;;;;;;4541404;31;20087;-68
2022/08/18 09:52:21;;;;;;;3.50;1.30;;;24.90;66.30;;;;;;4541283;31;20627;-70
2022/08/18 09:54:58;;;;;;;4.90;0.98;;;24.90;66.30;;;;;;4539744;31;20165;-69
2022/08/18 09:57:37;;;;;;;3.92;1.60;;;24.90;66.20;;;;;;4541324;31;20088;-68
2022/08/18 10:00:06;;;;;;;2.97;1.17;;;24.90;66.20;;;;;;4532053;31;20221;-68
2022/08/18 10:02:32;;;;;;;3.25;1.10;;;24.90;66.20;;;;;;4541846;31;20158;-74
2022/08/18 10:05:28;;;;;;;3.97;1.38;;;24.90;66.30;;;;;;4541345;31;20289;-67
2022/08/18 10:08:05;;;;;;;4.72;1.40;;;24.90;66.20;;;;;;4539824;31;20072;-67
2022/08/18 10:10:38;;;;;;;3.45;1.02;;;24.90;66.20;;;;;;4541114;31;20248;-67
2022/08/18 10:13:20;;;;;;;2.90;1.27;;;24.90;66.20;;;;;;4541053;31;20518;-68
2022/08/18 10:16:11;;;;;;;3.58;1.50;;;25.00;66.30;;;;;;4541037;31;20076;-68
2022/08/18 10:18:52;;;;;;;4.32;1.75;;;25.00;66.20;;;;;;4539925;31;20096;-69
2022/08/18 10:21:27;;;;;;;3.22;1.40;;;25.00;66.10;;;;;;4540997;31;20413;-69
2022/08/18 10:24:05;;;;;;;2.20;1.20;;;25.00;66.10;;;;;;4539353;31;20080;-68
2022/08/18 10:26:31;;;;;;;4.20;1.42;;;25.00;66.00;;;;;;4540864;31;20104;-68
2022/08/18 10:28:59;;;;;;;5.05;1.35;;;25.00;66.00;;;;;;4540748;31;20111;-68
2022/08/18 10:31:27;;;;;;;4.90;1.10;;;25.00;65.90;;;;;;4540186;31;20072;-68
2022/08/18 10:34:09;;;;;;;2.95;1.35;;;25.00;66.00;;;;;;4539971;31;20080;-68
2022/08/18 10:36:47;;;;;;;3.78;1.50;;;25.00;66.10;;;;;;4540124;31;20072;-67
2022/08/18 10:39:17;;;;;;;3.03;1.25;;;25.00;66.10;;;;;;4539867;31;20592;-68
2022/08/18 10:42:09;;;;;;;2.55;1.17;;;25.00;66.10;;;;;;4540376;31;20060;-68
2022/08/18 10:44:42;;;;;;;6.10;1.10;;;25.00;66.00;;;;;;4539956;31;20222;-68
2022/08/18 10:47:09;;;;;;;3.60;1.35;;;25.00;66.30;;;;;;4539959;31;20079;-68
2022/08/18 10:49:37;;;;;;;4.28;1.35;;;25.00;66.10;;;;;;4538892;31;20072;-68
2022/08/18 10:52:24;;;;;;;2.83;1.10;;;25.00;66.10;;;;;;4540056;31;20172;-68
2022/08/18 10:55:03;;;;;;;3.88;1.30;;;25.00;66.00;;;;;;4539685;31;20148;-70
2022/08/18 10:57:48;;;;;;;6.00;1.30;;;25.00;66.00;;;;;;4539754;31;20165;-69
2022/08/18 11:00:19;;;;;;;4.10;1.08;;;25.00;65.90;;;;;;4540294;31;20291;-68
2022/08/18 11:02:54;;;;;;;2.33;1.10;;;25.00;66.00;;;;;;4540017;31;20090;-69
2022/08/18 11:05:24;;;;;;;2.88;1.40;;;25.00;65.90;;;;;;4539955;31;20138;-69
2022/08/18 11:07:57;;;;;;;3.65;1.40;;;25.00;65.90;;;;;;4539458;31;20151;-69
2022/08/18 11:10:38;;;;;;;4.53;1.60;;;25.00;65.90;;;;;;4540067;31;20524;-68
2022/08/18 11:13:34;;;;;;;3.75;1.40;;;25.00;65.90;;;;;;4539938;31;20561;-68
2022/08/18 11:16:08;;;;;;;3.22;1.23;;;25.00;66.00;;;;;;4535191;31;20072;-68
2022/08/18 11:18:48;;;;;;;5.53;1.38;;;25.00;66.10;;;;;;4540204;31;20206;-69
2022/08/18 11:21:24;;;;;;;2.03;1.10;;;25.00;66.00;;;;;;4540473;31;20102;-71
2022/08/18 11:24:10;;;;;;;2.90;1.00;;;25.00;66.00;;;;;;4540384;31;20080;-68
2022/08/18 11:26:51;;;;;;;4.05;1.33;;;25.00;65.80;;;;;;4540656;31;20080;-71
2022/08/18 11:29:28;;;;;;;6.63;1.17;;;25.00;65.80;;;;;;4540527;31;20386;-69
2022/08/18 11:32:05;;;;;;;4.97;1.38;;;25.00;65.50;;;;;;4540092;31;20076;-67
2022/08/18 11:34:36;;;;;;;5.45;1.30;;;25.00;65.40;;;;;;4539885;31;20560;-68
2022/08/18 11:37:06;;;;;;;3.78;1.42;;;25.00;65.40;;;;;;4540030;31;20133;-70
2022/08/18 11:39:40;;;;;;;6.18;1.70;;;25.00;65.40;;;;;;4540056;31;20122;-68
2022/08/18 11:42:08;;;;;;;2.70;1.30;;;25.00;65.30;;;;;;4540256;31;20080;-68
2022/08/18 11:44:38;;;;;;;3.63;1.40;;;25.00;65.30;;;;;;4535009;31;20064;-68
2022/08/18 11:47:14;;;;;;;5.57;1.48;;;25.00;65.40;;;;;;4539791;31;20165;-68
2022/08/18 11:50:11;;;;;;;6.72;1.40;;;25.00;65.40;;;;;;4539900;31;20647;-69
2022/08/18 11:52:49;;;;;;;3.83;1.73;;;25.00;65.40;;;;;;4526622;31;20709;-69
2022/08/18 11:55:30;;;;;;;5.68;1.20;;;25.00;65.50;;;;;;4539783;31;20196;-69
2022/08/18 11:57:57;;;;;;;4.90;1.38;;;25.00;65.50;;;;;;4539927;31;20086;-69
2022/08/18 12:00:38;;;;;;;2.03;1.20;;;25.00;65.50;;;;;;4539586;31;20176;-69
2022/08/18 12:03:28;;;;;;;2.75;1.25;;;25.00;65.40;;;;;;4539724;31;20107;-68
2022/08/18 12:06:09;;;;;;;2.63;1.50;;;25.00;65.40;;;;;;4534805;31;20115;-69
2022/08/18 12:08:46;;;;;;;5.07;1.52;;;25.00;65.50;;;;;;4536364;31;20198;-69
2022/08/18 12:11:27;;;;;;;2.83;1.20;;;25.00;65.50;;;;;;4539540;31;20134;-69
2022/08/18 12:13:58;;;;;;;4.07;1.20;;;25.00;65.40;;;;;;4539629;31;20088;-69
2022/08/18 12:16:37;;;;;;;4.90;1.27;;;25.00;65.50;;;;;;4539542;31;20581;-68
2022/08/18 12:19:04;;;;;;;4.13;1.20;;;25.00;65.40;;;;;;4539319;31;20238;-68
2022/08/18 12:21:32;;;;;;;6.70;1.30;;;25.00;65.50;;;;;;4539451;31;20154;-69
2022/08/18 12:23:57;;;;;;;2.72;1.17;;;25.00;65.40;;;;;;4539455;31;20193;-68
2022/08/18 12:26:23;;;;;;;2.65;1.30;;;25.00;65.40;;;;;;4531180;31;20168;-68
2022/08/18 12:28:49;;;;;;;3.78;1.77;;;25.00;65.40;;;;;;4522191;31;20064;-68
2022/08/18 12:31:16;;;;;;;2.70;1.35;;;25.00;65.40;;;;;;4539691;31;20467;-68
2022/08/18 12:33:42;;;;;;;2.78;1.02;;;25.00;65.40;;;;;;4539333;31;20123;-68
2022/08/18 12:36:08;;;;;;;2.00;1.02;;;25.00;65.40;;;;;;4524713;31;20556;-67
2022/08/18 12:38:34;;;;;;;4.47;1.20;;;25.00;65.40;;;;;;4539463;31;20179;-67
2022/08/18 12:41:04;;;;;;;3.88;1.30;;;25.00;65.30;;;;;;4539107;31;20084;-67
2022/08/18 12:43:31;;;;;;;3.85;1.15;;;25.00;65.40;;;;;;4538915;31;20064;-68
2022/08/18 12:45:58;;;;;;;5.18;1.20;;;25.00;65.30;;;;;;4539140;31;20079;-68
2022/08/18 12:48:27;;;;;;;3.28;1.42;;;25.00;65.30;;;;;;4539105;31;20509;-68
2022/08/18 12:50:53;;;;;;;3.90;1.08;;;25.00;65.30;;;;;;4538590;31;20080;-68
2022/08/18 12:53:19;;;;;;;1.95;1.10;;;25.00;65.20;;;;;;4538837;31;20064;-67
2022/08/18 12:55:45;;;;;;;4.30;1.20;;;25.00;65.10;;;;;;4539243;31;20169;-69
2022/08/18 12:58:11;;;;;;;3.03;1.15;;;25.10;65.10;;;;;;4539099;31;20394;-70
2022/08/18 13:00:39;;;;;;;1.90;0.98;;;25.10;65.10;;;;;;4524732;31;20117;-68
2022/08/18 13:03:06;;;;;;;2.50;1.13;;;25.10;64.90;;;;;;4538779;31;20076;-68
2022/08/18 13:05:33;;;;;;;2.63;1.10;;;25.10;64.90;;;;;;4524702;31;20177;-68
2022/08/18 13:08:04;;;;;;;1.98;1.02;;;25.10;64.70;;;;;;4538993;31;20213;-68
2022/08/18 13:10:29;;;;;;;2.13;1.00;;;25.20;64.60;;;;;;4539199;31;20071;-68
2022/08/18 13:12:55;;;;;;;1.80;1.13;;;25.20;64.50;;;;;;4539011;31;20090;-68
2022/08/18 13:15:22;;;;;;;1.63;1.05;;;25.20;64.40;;;;;;4539196;31;20150;-68
2022/08/18 13:17:49;;;;;;;2.95;1.10;;;25.20;64.20;;;;;;4524438;31;20076;-68
2022/08/18 13:20:16;;;;;;;2.55;1.00;;;25.20;64.10;;;;;;4538210;31;20122;-68
2022/08/18 13:22:43;;;;;;;2.65;1.10;;;25.20;64.00;;;;;;4541977;31;20168;-68
2022/08/18 13:25:12;;;;;;;3.15;1.17;;;25.20;63.90;;;;;;4542179;31;20095;-68
2022/08/18 13:27:38;;;;;;;2.17;1.20;;;25.30;63.90;;;;;;4542198;31;20090;-68
2022/08/18 13:30:08;;;;;;;1.52;1.00;;;25.30;63.80;;;;;;4542253;31;20079;-68
2022/08/18 13:32:34;;;;;;;3.53;1.10;;;25.30;63.70;;;;;;4542010;31;20139;-68
2022/08/18 13:35:00;;;;;;;3.22;1.00;;;25.30;63.70;;;;;;4542385;31;20227;-68
2022/08/18 13:37:27;;;;;;;2.67;1.40;;;25.30;63.60;;;;;;4541986;31;20057;-68
2022/08/18 13:39:53;;;;;;;3.47;1.27;;;25.30;64.50;;;;;;4542144;31;20157;-68